Ekhinos, Greece

9:20 PM EEST on August 30, 2015 (GMT +0300)
Xanthi-Pal. Erg. Katoikies | | Change Station
CLOSE
Current Station
Personal Weather Station
Location: U03B7, %U039C%U03B1%U03BA%U03B5%U03B4%U03BF%U03BD%U03AF%U03B1 %U0398%U03C1%U03AC%U03BA%U03B7
Elevation: 213 ft
Nearby Weather Stations

Elev 213 ft 41.13 °N, 24.89 °E | Updated 42 seconds ago

Clear
Clear
80.8 °F
Feels Like 79 °F
N
1.1
Wind Variable Wind from East
Gusts 1.1 mph

Today
High -- | Low -- °F
--% Chance of Precip.
Yesterday
High -- | Low -- °F
Precip. -- in
6:43 AM 7:57 PM
Full, 99% visible
Pressure 30.09 in
Visibility -9999.0 miles
Clouds
Heat Index 79 °F
Dew Point 27 °F
Humidity 14%
Rainfall 0.00 in
Snow Depth Not available.
UV Not available.
Pollen Not available.
Air Quality Not available.
Flu Activity Not available.
METAR LGKV 301750Z 00000KT CAVOK 26/21 Q1019
Pressure 30.09 in
Visibility -9999.0 miles
Clouds
Heat Index 79 °F
Dew Point 27 °F
Humidity 14%
Rainfall 0.00 in
Snow Depth Not available.
UV Not available.
Pollen Not available.
Air Quality Not available.
Flu Activity Not available.
METAR LGKV 301750Z 00000KT CAVOK 26/21 Q1019

10-Day Weather Forecast

×

Almanac

Astronomy

Aug. 30, 2015 Rise Set
Actual Time
Civil Twilight
Nautical Twilight
Astronomical Twilight
Moon
Length of Visible Light
Length of Day
Tomorrow will be .
, % of the Moon is Illuminated

Today's Extremes

Country Highs Country Lows

Community

WunderPhotos

Upload Photos

1,851,029 photos uploaded!

WunderBlogs® & News

Nearby

Air Quality

  Air Quality AQ Index Pollutant
Not available.

Snow Depth

Station Depth Elevation

Earthquake Activity

City Distance Mag. Time & Date
Minimum magnitude displayed is 2.5.

Coastal Water Temperatures

Place Temperature

Stations

Nearby Weather Stations

Station Location Temp. Windchill Dew Point Humidity Wind Precip. Elev Updated Type